Time;durP1;ratioP1;P1;durP2;ratioP2;P2;SDS_P1;SDS_P2;PMS_P1;PMS_P2;Temp;Humidity;BMP_temperature;BMP_pressure;BME280_temperature;BME280_humidity;BME280_pressure;Samples;Min_cycle;Max_cycle;Signal;HPM_P1;HPM_P2
2022/05/30 00:01:12;;;;;;;4.00;2.30;;;11.40;99.90;;;;;;5050064;28;20480;-38
2022/05/30 00:03:38;;;;;;;7.10;1.90;;;11.10;99.90;;;;;;5056092;28;20615;-39
2022/05/30 00:06:08;;;;;;;5.23;1.93;;;11.10;99.90;;;;;;5063451;28;20419;-39
2022/05/30 00:08:33;;;;;;;8.20;2.37;;;11.10;99.90;;;;;;5068342;28;20438;-39
2022/05/30 00:11:04;;;;;;;6.00;2.17;;;11.20;99.90;;;;;;5061739;28;20432;-38
2022/05/30 00:13:30;;;;;;;6.70;1.97;;;11.10;99.90;;;;;;5055778;28;20670;-39
2022/05/30 00:15:56;;;;;;;4.53;2.37;;;11.00;99.90;;;;;;5052904;28;20594;-38
2022/05/30 00:18:22;;;;;;;6.10;2.30;;;11.00;99.90;;;;;;5068327;28;21026;-38
2022/05/30 00:20:48;;;;;;;5.60;2.03;;;10.90;99.90;;;;;;5065966;28;20216;-38
2022/05/30 00:23:14;;;;;;;3.30;1.70;;;11.00;99.90;;;;;;5068854;28;20307;-39
2022/05/30 00:25:42;;;;;;;4.17;2.40;;;11.10;99.90;;;;;;5064136;28;20996;-38
2022/05/30 00:28:08;;;;;;;4.73;2.67;;;11.00;99.90;;;;;;5049281;28;20433;-39
2022/05/30 00:30:34;;;;;;;3.87;2.30;;;11.00;99.90;;;;;;5055140;28;20456;-39
2022/05/30 00:32:59;;;;;;;7.07;2.17;;;11.00;99.90;;;;;;5068726;28;21037;-39
2022/05/30 00:35:25;;;;;;;6.73;2.63;;;11.00;99.90;;;;;;5057914;28;20230;-38
2022/05/30 00:37:51;;;;;;;3.73;1.67;;;10.90;99.90;;;;;;5068049;28;20673;-39
2022/05/30 00:40:18;;;;;;;2.70;1.90;;;10.90;99.90;;;;;;5068540;28;20193;-39
2022/05/30 00:42:44;;;;;;;2.90;2.30;;;11.20;99.90;;;;;;5053268;28;20350;-39
2022/05/30 00:45:10;;;;;;;3.50;1.70;;;10.90;99.90;;;;;;5051144;28;20524;-39
2022/05/30 00:47:37;;;;;;;6.20;2.73;;;10.80;99.90;;;;;;5067760;28;20200;-38
2022/05/30 00:50:04;;;;;;;5.07;1.97;;;10.90;99.90;;;;;;5061483;28;20796;-39
2022/05/30 00:52:35;;;;;;;3.50;1.80;;;10.80;99.90;;;;;;5068376;28;20938;-38
2022/05/30 00:55:10;;;;;;;4.83;2.90;;;10.80;99.90;;;;;;5068645;28;20423;-39
2022/05/30 00:57:39;;;;;;;6.17;2.30;;;10.70;99.90;;;;;;5055025;28;20459;-39
2022/05/30 01:00:16;;;;;;;4.20;1.93;;;10.90;99.90;;;;;;5054518;28;20931;-38
2022/05/30 01:02:43;;;;;;;4.93;2.20;;;10.90;99.90;;;;;;5051958;28;20825;-39
2022/05/30 01:07:57;;;;;;;9.00;2.17;;;10.80;99.90;;;;;;5070877;28;20418;-38
2022/05/30 01:10:23;;;;;;;4.30;2.33;;;10.80;99.90;;;;;;5072078;28;20514;-38
2022/05/30 01:12:55;;;;;;;5.23;1.90;;;10.70;99.90;;;;;;5056468;28;21055;-38
2022/05/30 01:15:24;;;;;;;7.50;2.00;;;10.70;99.90;;;;;;5054630;28;20539;-39
2022/05/30 01:17:58;;;;;;;6.53;2.50;;;10.80;99.90;;;;;;5069768;28;20447;-39
2022/05/30 01:20:39;;;;;;;4.57;1.97;;;10.70;99.90;;;;;;5061193;28;20443;-39
2022/05/30 01:23:27;;;;;;;5.03;1.83;;;10.70;99.90;;;;;;5071621;28;20466;-38
2022/05/30 01:26:21;;;;;;;3.93;1.70;;;10.80;99.90;;;;;;5069151;28;20447;-38
2022/05/30 01:28:57;;;;;;;6.20;2.37;;;10.90;99.90;;;;;;5055340;28;20915;-39
2022/05/30 01:31:24;;;;;;;4.17;2.27;;;11.00;99.90;;;;;;5064237;28;20871;-38
2022/05/30 01:33:50;;;;;;;4.43;1.67;;;10.80;99.90;;;;;;5070087;28;20459;-38
2022/05/30 01:36:15;;;;;;;5.87;2.60;;;11.20;99.90;;;;;;5065121;28;20480;-38
2022/05/30 01:38:41;;;;;;;7.67;2.17;;;10.80;99.90;;;;;;5070590;28;20898;-38
2022/05/30 01:41:07;;;;;;;7.83;2.27;;;10.90;99.90;;;;;;5068402;28;20663;-39
2022/05/30 01:43:33;;;;;;;7.33;2.67;;;10.90;99.90;;;;;;5055888;28;20191;-39
2022/05/30 01:46:11;;;;;;;6.50;2.23;;;10.80;99.90;;;;;;5054406;28;20289;-38
2022/05/30 01:48:37;;;;;;;3.00;1.60;;;10.80;99.90;;;;;;5069075;28;20493;-38
2022/05/30 01:51:03;;;;;;;3.00;1.70;;;10.70;99.90;;;;;;5069384;28;20490;-39
2022/05/30 01:53:29;;;;;;;6.07;2.33;;;10.80;99.90;;;;;;5070154;28;20388;-38
2022/05/30 01:55:55;;;;;;;7.97;2.63;;;10.70;99.90;;;;;;5070813;28;20817;-38
2022/05/30 01:58:21;;;;;;;4.67;1.70;;;10.70;99.90;;;;;;5053618;28;20423;-39
2022/05/30 02:00:47;;;;;;;5.97;1.77;;;10.70;99.90;;;;;;5053650;28;20408;-38
2022/05/30 02:03:13;;;;;;;3.90;1.93;;;10.60;99.90;;;;;;5055837;28;20213;-39
2022/05/30 02:05:40;;;;;;;7.50;2.27;;;10.60;99.90;;;;;;5060871;28;20427;-38
2022/05/30 02:08:07;;;;;;;3.80;2.20;;;10.60;99.90;;;;;;5068206;28;20735;-38
2022/05/30 02:10:33;;;;;;;6.80;2.10;;;10.70;99.90;;;;;;5070946;28;20434;-38
2022/05/30 02:13:00;;;;;;;4.77;2.00;;;10.60;99.90;;;;;;5058394;28;20427;-38
2022/05/30 02:15:26;;;;;;;4.90;2.17;;;10.60;99.90;;;;;;5053493;28;20455;-39
2022/05/30 02:17:52;;;;;;;5.77;2.37;;;10.70;99.90;;;;;;5068257;28;20427;-38
2022/05/30 02:20:18;;;;;;;6.70;2.50;;;10.60;99.90;;;;;;5064028;28;20420;-39
2022/05/30 02:22:45;;;;;;;4.53;1.90;;;10.70;99.90;;;;;;5068600;28;20493;-39
2022/05/30 02:25:12;;;;;;;6.43;2.13;;;10.70;99.90;;;;;;5070314;28;20412;-39
2022/05/30 02:27:39;;;;;;;3.70;1.87;;;10.80;99.90;;;;;;5056981;28;20455;-39
2022/05/30 02:30:05;;;;;;;4.57;1.70;;;10.70;99.90;;;;;;5055169;28;20447;-39
2022/05/30 02:32:31;;;;;;;6.57;2.30;;;10.60;99.90;;;;;;5055814;28;20518;-38
2022/05/30 02:37:41;;;;;;;6.63;2.27;;;10.40;99.90;;;;;;5069496;28;20808;-38
2022/05/30 02:40:07;;;;;;;4.13;1.50;;;10.50;99.90;;;;;;5070234;28;20446;-38
2022/05/30 02:42:33;;;;;;;4.40;2.43;;;10.60;99.90;;;;;;5059395;28;20214;-39
2022/05/30 02:44:59;;;;;;;7.23;2.37;;;10.50;99.90;;;;;;5051109;28;20428;-38
2022/05/30 02:47:24;;;;;;;9.30;2.17;;;10.50;99.90;;;;;;5059126;28;20208;-38
2022/05/30 02:49:50;;;;;;;3.70;2.10;;;10.70;99.90;;;;;;5069458;28;20203;-38
2022/05/30 02:52:16;;;;;;;7.47;2.20;;;10.60;99.90;;;;;;5069969;28;20262;-38
2022/05/30 02:54:41;;;;;;;4.10;2.53;;;10.70;99.90;;;;;;5068939;28;20279;-39
2022/05/30 02:57:07;;;;;;;5.00;2.27;;;10.70;99.90;;;;;;5061833;28;20198;-39
2022/05/30 02:59:33;;;;;;;8.17;2.40;;;10.60;99.90;;;;;;5053384;28;20189;-38
2022/05/30 03:01:59;;;;;;;9.17;2.30;;;10.50;99.90;;;;;;5050551;28;20209;-38
2022/05/30 03:04:24;;;;;;;4.37;2.77;;;10.80;99.90;;;;;;5064139;28;20206;-38
2022/05/30 03:06:51;;;;;;;3.90;2.50;;;10.50;99.90;;;;;;5060229;28;20232;-39
2022/05/30 03:09:18;;;;;;;4.20;2.17;;;10.60;99.90;;;;;;5069442;28;20520;-39
2022/05/30 03:11:44;;;;;;;9.57;2.40;;;10.50;99.90;;;;;;5066192;28;20542;-39
2022/05/30 03:14:10;;;;;;;8.23;2.40;;;10.60;99.90;;;;;;5050318;28;20507;-39
2022/05/30 03:16:36;;;;;;;6.97;2.57;;;10.70;99.90;;;;;;5057545;28;20228;-38
2022/05/30 03:19:01;;;;;;;4.20;2.00;;;10.90;99.90;;;;;;5068613;28;20220;-39
2022/05/30 03:21:27;;;;;;;4.20;2.20;;;10.60;99.90;;;;;;5064173;28;20582;-38
2022/05/30 03:23:53;;;;;;;2.90;1.97;;;10.60;99.90;;;;;;5069432;28;20534;-39
2022/05/30 03:26:19;;;;;;;6.40;2.67;;;10.90;99.90;;;;;;5069526;28;20276;-39
2022/05/30 03:28:45;;;;;;;3.70;2.20;;;10.80;99.90;;;;;;5051867;28;20178;-38
2022/05/30 03:31:11;;;;;;;3.43;2.00;;;10.60;99.90;;;;;;5053560;28;20413;-40
2022/05/30 03:33:38;;;;;;;6.00;2.80;;;10.90;99.90;;;;;;5063513;28;20292;-38
2022/05/30 03:36:12;;;;;;;3.63;2.07;;;10.70;99.90;;;;;;5068323;28;20275;-38
2022/05/30 03:38:38;;;;;;;5.17;2.90;;;10.60;99.90;;;;;;5068439;28;20458;-39
2022/05/30 03:41:03;;;;;;;6.30;2.40;;;10.60;99.90;;;;;;5069224;28;20445;-39
2022/05/30 03:43:29;;;;;;;5.57;2.57;;;10.40;99.90;;;;;;5052592;28;20340;-39
2022/05/30 03:45:54;;;;;;;4.73;1.90;;;10.50;99.90;;;;;;5052351;28;20174;-38
2022/05/30 03:48:21;;;;;;;8.83;2.80;;;10.50;99.90;;;;;;5063483;28;20212;-39
2022/05/30 03:50:48;;;;;;;8.10;2.60;;;10.50;99.90;;;;;;5063148;28;20625;-40
2022/05/30 03:53:14;;;;;;;7.97;2.27;;;10.50;99.90;;;;;;5063720;28;20415;-38
2022/05/30 03:55:43;;;;;;;8.50;2.70;;;10.50;99.90;;;;;;5068900;28;20423;-39
2022/05/30 03:58:10;;;;;;;6.37;2.43;;;10.40;99.90;;;;;;5058063;28;20436;-38
2022/05/30 04:00:38;;;;;;;4.17;2.10;;;10.40;99.90;;;;;;5051238;28;20506;-38
2022/05/30 04:03:04;;;;;;;8.23;4.03;;;10.40;99.90;;;;;;5051877;28;20558;-39
2022/05/30 04:05:30;;;;;;;7.50;2.30;;;10.50;99.90;;;;;;5066483;28;20565;-38
2022/05/30 04:07:57;;;;;;;6.33;3.03;;;10.40;99.90;;;;;;5065129;28;20197;-38
2022/05/30 04:10:24;;;;;;;6.43;1.90;;;10.60;99.90;;;;;;5068759;28;20769;-39
2022/05/30 04:12:50;;;;;;;6.87;3.00;;;10.40;99.90;;;;;;5062914;28;21010;-38
2022/05/30 04:15:22;;;;;;;3.90;2.30;;;10.40;99.90;;;;;;5047234;28;20955;-39
2022/05/30 04:17:48;;;;;;;6.27;2.63;;;10.30;99.90;;;;;;5054308;28;20411;-38
2022/05/30 04:20:15;;;;;;;7.67;2.50;;;10.30;99.90;;;;;;5068611;28;20419;-38
2022/05/30 04:22:40;;;;;;;7.47;2.60;;;10.30;99.90;;;;;;5067099;28;20459;-38
2022/05/30 04:25:07;;;;;;;7.70;2.90;;;10.40;99.90;;;;;;5068769;28;20457;-38
2022/05/30 04:27:33;;;;;;;4.97;2.37;;;10.40;99.90;;;;;;5062497;28;20184;-38
2022/05/30 04:29:59;;;;;;;3.80;2.57;;;10.50;99.90;;;;;;5052353;28;21164;-38
2022/05/30 04:32:26;;;;;;;8.03;2.50;;;10.50;99.90;;;;;;5057188;28;20185;-38
2022/05/30 04:34:52;;;;;;;3.97;2.20;;;10.60;99.90;;;;;;5072538;28;20439;-38
2022/05/30 04:37:18;;;;;;;5.77;2.80;;;10.50;99.90;;;;;;5060445;28;20427;-38
2022/05/30 04:39:44;;;;;;;8.57;3.80;;;10.50;99.90;;;;;;5072648;28;20795;-39
2022/05/30 04:42:09;;;;;;;5.73;2.50;;;10.50;99.90;;;;;;5052946;28;20524;-39
2022/05/30 04:44:35;;;;;;;8.67;2.53;;;10.70;99.90;;;;;;5048467;28;20216;-39
2022/05/30 04:47:01;;;;;;;5.20;2.53;;;10.50;99.90;;;;;;5066794;28;20528;-39
2022/05/30 04:49:27;;;;;;;6.57;2.73;;;10.50;99.90;;;;;;5052803;28;20193;-38
2022/05/30 04:51:53;;;;;;;5.73;2.33;;;10.30;99.90;;;;;;5054896;28;20644;-38
2022/05/30 04:54:20;;;;;;;9.07;2.70;;;10.30;99.90;;;;;;5057076;28;20428;-38
2022/05/30 04:56:46;;;;;;;5.07;2.20;;;10.60;99.90;;;;;;5060253;28;20481;-39
2022/05/30 04:59:12;;;;;;;5.10;2.77;;;10.40;99.90;;;;;;5055629;28;20439;-38
2022/05/30 05:01:38;;;;;;;9.50;2.37;;;10.60;99.90;;;;;;5052242;28;20240;-38
2022/05/30 05:04:05;;;;;;;7.03;3.10;;;10.50;99.90;;;;;;5056721;28;20617;-39
2022/05/30 05:06:31;;;;;;;6.80;2.70;;;10.50;99.90;;;;;;5067878;28;20416;-38
2022/05/30 05:09:06;;;;;;;8.97;4.40;;;10.60;99.90;;;;;;5071706;28;21102;-39
2022/05/30 05:11:34;;;;;;;10.43;3.00;;;10.50;99.90;;;;;;5055783;28;20476;-38
2022/05/30 05:14:00;;;;;;;5.80;2.60;;;10.60;99.90;;;;;;5050791;28;20539;-38
2022/05/30 05:16:28;;;;;;;6.40;2.70;;;10.40;99.90;;;;;;5055993;28;21006;-38
2022/05/30 05:18:54;;;;;;;8.23;2.97;;;10.50;99.90;;;;;;5065295;28;20717;-39
2022/05/30 05:21:26;;;;;;;7.33;3.10;;;10.30;99.90;;;;;;5066136;28;20802;-38
2022/05/30 05:23:53;;;;;;;5.80;3.57;;;10.60;99.90;;;;;;5066438;28;20427;-38
2022/05/30 05:26:19;;;;;;;6.00;3.27;;;10.50;99.90;;;;;;5071475;28;20729;-38
2022/05/30 05:28:46;;;;;;;7.63;3.93;;;10.50;99.90;;;;;;5054815;28;20432;-38
2022/05/30 05:31:25;;;;;;;6.90;3.10;;;10.40;99.90;;;;;;5053192;28;20416;-39
2022/05/30 05:33:53;;;;;;;6.93;2.40;;;10.50;99.90;;;;;;5067673;28;20426;-39
2022/05/30 05:36:24;;;;;;;5.73;2.73;;;10.80;99.90;;;;;;5066727;28;20499;-38
2022/05/30 05:38:50;;;;;;;8.63;2.97;;;10.90;99.90;;;;;;5051589;28;20431;-38
2022/05/30 05:41:16;;;;;;;4.90;2.60;;;10.70;99.90;;;;;;5053625;28;20447;-38
2022/05/30 05:43:42;;;;;;;7.33;3.00;;;10.60;99.90;;;;;;5054374;28;20440;-38
2022/05/30 05:46:16;;;;;;;16.00;3.30;;;11.00;99.90;;;;;;5055118;28;20424;-38
2022/05/30 05:48:41;;;;;;;10.33;2.90;;;10.90;99.90;;;;;;5056082;28;20181;-38
2022/05/30 05:51:07;;;;;;;7.17;2.50;;;10.90;99.90;;;;;;5068335;28;20471;-39
2022/05/30 05:53:34;;;;;;;4.27;2.10;;;10.90;99.90;;;;;;5049089;28;20277;-38
2022/05/30 05:56:15;;;;;;;8.40;3.17;;;11.10;99.90;;;;;;5049829;28;20486;-38
2022/05/30 05:58:41;;;;;;;5.50;2.70;;;11.10;99.90;;;;;;5047135;28;20432;-38
2022/05/30 06:01:08;;;;;;;4.90;2.40;;;10.90;99.90;;;;;;5049512;28;20457;-38
2022/05/30 06:03:34;;;;;;;10.73;3.43;;;11.10;99.90;;;;;;5057877;28;20255;-39
2022/05/30 06:06:00;;;;;;;5.73;2.23;;;11.20;99.90;;;;;;5069424;28;20515;-38
2022/05/30 06:08:25;;;;;;;8.30;2.30;;;11.30;99.90;;;;;;5039681;28;20250;-38
2022/05/30 06:11:08;;;;;;;8.73;2.33;;;11.30;99.90;;;;;;5051524;28;20217;-38
2022/05/30 06:13:38;;;;;;;6.33;2.83;;;11.40;99.90;;;;;;5052816;28;20190;-38
2022/05/30 06:16:06;;;;;;;12.47;2.90;;;11.40;99.90;;;;;;5051147;28;20432;-39
2022/05/30 06:18:32;;;;;;;4.43;2.83;;;11.40;99.90;;;;;;5048782;28;20485;-39
2022/05/30 06:20:59;;;;;;;7.30;3.20;;;11.60;99.90;;;;;;5051110;28;20432;-38
2022/05/30 06:23:24;;;;;;;7.10;3.20;;;11.50;99.90;;;;;;5049407;28;20627;-39
2022/05/30 06:25:50;;;;;;;5.27;2.63;;;11.60;99.90;;;;;;5049465;28;20496;-38
2022/05/30 06:28:16;;;;;;;6.07;2.60;;;11.90;99.90;;;;;;5048650;28;20182;-39
2022/05/30 06:30:41;;;;;;;7.30;2.97;;;11.50;99.90;;;;;;5048257;28;20842;-38
2022/05/30 06:33:07;;;;;;;16.13;3.57;;;11.60;99.90;;;;;;5051085;28;20706;-39
2022/05/30 06:35:33;;;;;;;6.70;2.60;;;11.50;99.90;;;;;;5067105;28;20257;-39
2022/05/30 06:37:58;;;;;;;8.80;2.80;;;11.60;99.90;;;;;;5065636;28;20189;-39
2022/05/30 06:40:25;;;;;;;8.70;2.93;;;11.60;99.90;;;;;;5070010;28;20266;-38
2022/05/30 06:42:50;;;;;;;8.33;3.60;;;11.60;99.90;;;;;;5057144;28;20226;-39
2022/05/30 06:45:16;;;;;;;6.60;3.00;;;11.60;99.90;;;;;;5049151;28;20974;-38
2022/05/30 06:47:42;;;;;;;11.93;2.90;;;11.70;99.90;;;;;;5054386;28;20679;-38
2022/05/30 06:50:08;;;;;;;6.53;2.47;;;11.70;99.90;;;;;;5066488;28;20223;-39
2022/05/30 06:52:35;;;;;;;7.03;2.57;;;11.80;99.90;;;;;;5049642;28;20197;-38
2022/05/30 06:55:01;;;;;;;8.30;2.70;;;12.00;99.90;;;;;;5052546;28;20469;-38
2022/05/30 07:00:13;;;;;;;8.67;3.07;;;12.00;99.90;;;;;;5054081;28;20660;-38
2022/05/30 07:02:39;;;;;;;10.40;3.00;;;11.90;99.90;;;;;;5049343;28;20472;-39
2022/05/30 07:05:05;;;;;;;8.07;2.77;;;11.90;99.90;;;;;;5066300;28;21111;-39
2022/05/30 07:07:31;;;;;;;8.20;2.77;;;11.70;99.90;;;;;;5050307;28;20764;-38
2022/05/30 07:09:56;;;;;;;8.30;2.70;;;11.70;99.90;;;;;;5049680;28;20436;-39
2022/05/30 07:12:22;;;;;;;4.87;2.60;;;12.00;99.90;;;;;;5062464;28;20193;-39
2022/05/30 07:14:48;;;;;;;8.27;2.83;;;12.00;99.90;;;;;;5058232;28;20682;-39
2022/05/30 07:17:13;;;;;;;8.37;2.83;;;12.20;99.90;;;;;;5054449;28;20252;-38
2022/05/30 07:19:39;;;;;;;9.23;3.77;;;12.30;99.90;;;;;;5056449;28;20193;-39
2022/05/30 07:22:05;;;;;;;6.13;4.13;;;12.40;99.90;;;;;;5052892;28;20221;-39
2022/05/30 07:24:31;;;;;;;7.60;4.20;;;12.50;99.90;;;;;;5064554;28;20561;-39
2022/05/30 07:26:56;;;;;;;7.87;3.63;;;12.50;99.90;;;;;;5061877;28;20434;-38
2022/05/30 07:29:22;;;;;;;6.60;3.70;;;12.60;99.90;;;;;;5060443;28;20608;-38
2022/05/30 07:31:48;;;;;;;6.53;3.80;;;12.60;99.90;;;;;;5049869;28;20190;-38
2022/05/30 07:34:13;;;;;;;6.33;4.73;;;12.70;99.90;;;;;;5059908;28;20526;-38
2022/05/30 07:36:39;;;;;;;12.40;5.97;;;12.70;99.90;;;;;;5068804;28;20189;-38
2022/05/30 07:39:05;;;;;;;8.93;4.37;;;12.80;99.90;;;;;;5050906;28;20190;-39
2022/05/30 07:41:31;;;;;;;6.53;4.70;;;13.00;99.90;;;;;;5049013;28;20194;-39
2022/05/30 07:43:57;;;;;;;8.27;4.37;;;13.10;99.90;;;;;;5051301;28;20273;-38
2022/05/30 07:46:25;;;;;;;14.80;4.20;;;13.00;99.90;;;;;;5053568;28;20527;-38
2022/05/30 07:48:51;;;;;;;5.07;4.37;;;12.90;99.90;;;;;;5062705;28;20264;-38
2022/05/30 07:51:17;;;;;;;6.60;3.50;;;12.90;99.90;;;;;;5069046;28;20569;-39
2022/05/30 07:53:43;;;;;;;10.47;4.00;;;13.00;99.90;;;;;;5060938;28;20277;-39
2022/05/30 07:56:12;;;;;;;6.40;3.07;;;13.00;99.90;;;;;;5068604;28;20232;-39
2022/05/30 07:58:38;;;;;;;6.43;3.17;;;13.00;99.90;;;;;;5067281;28;20423;-39
2022/05/30 08:01:05;;;;;;;4.97;2.77;;;13.10;99.90;;;;;;5049411;28;20421;-38
2022/05/30 08:03:31;;;;;;;8.30;3.30;;;13.30;99.90;;;;;;5051313;28;20489;-39
2022/05/30 08:06:12;;;;;;;7.00;2.83;;;13.40;99.90;;;;;;5069126;28;20427;-39
2022/05/30 08:08:41;;;;;;;7.70;4.13;;;13.50;99.90;;;;;;5071179;28;20433;-39
2022/05/30 08:11:08;;;;;;;3.50;2.47;;;13.60;99.90;;;;;;5075417;28;20423;-39
2022/05/30 08:13:34;;;;;;;5.00;2.67;;;13.50;99.90;;;;;;5075563;28;20423;-39
2022/05/30 08:16:01;;;;;;;4.47;2.63;;;13.40;99.90;;;;;;5059341;28;20438;-38
2022/05/30 08:18:27;;;;;;;5.43;2.60;;;13.40;99.90;;;;;;5055072;28;20420;-39
2022/05/30 08:20:53;;;;;;;3.60;2.30;;;13.40;99.90;;;;;;5071877;28;20451;-38
2022/05/30 08:23:19;;;;;;;6.97;3.27;;;13.30;99.90;;;;;;5066166;28;20465;-39
2022/05/30 08:25:47;;;;;;;7.40;3.43;;;13.30;99.90;;;;;;5071957;28;20423;-39
2022/05/30 08:28:13;;;;;;;11.50;3.90;;;13.40;99.90;;;;;;5075188;28;20454;-39
2022/05/30 08:30:39;;;;;;;4.03;3.07;;;13.20;99.90;;;;;;5059402;28;20436;-39
2022/05/30 08:33:13;;;;;;;8.37;3.90;;;13.20;99.90;;;;;;5058514;28;20431;-38
2022/05/30 08:35:38;;;;;;;7.57;4.07;;;13.20;99.90;;;;;;5073024;28;20196;-39
2022/05/30 08:38:05;;;;;;;7.90;4.37;;;13.20;99.90;;;;;;5068437;28;20424;-39
2022/05/30 08:43:34;;;;;;;7.67;4.30;;;13.10;99.90;;;;;;5075140;28;20803;-38
2022/05/30 08:46:19;;;;;;;7.97;5.10;;;13.20;99.90;;;;;;5056935;28;20438;-38
2022/05/30 08:49:22;;;;;;;7.63;5.10;;;13.20;99.90;;;;;;5066122;28;20430;-39
2022/05/30 08:52:16;;;;;;;8.07;4.40;;;13.20;99.90;;;;;;5060120;28;20438;-39
2022/05/30 08:54:58;;;;;;;6.07;4.90;;;13.30;99.90;;;;;;5070071;28;20414;-38
2022/05/30 08:57:59;;;;;;;7.33;5.60;;;13.40;99.90;;;;;;5074302;28;20531;-39
2022/05/30 09:00:38;;;;;;;8.30;4.60;;;13.50;99.90;;;;;;5063365;28;20438;-38
2022/05/30 09:03:13;;;;;;;5.60;4.23;;;13.50;99.90;;;;;;5058017;28;20470;-39
2022/05/30 09:05:50;;;;;;;4.53;4.03;;;13.70;99.90;;;;;;5066760;28;20952;-39
2022/05/30 09:08:36;;;;;;;5.50;3.70;;;13.90;99.90;;;;;;5068307;28;20424;-39
2022/05/30 09:11:07;;;;;;;7.13;4.40;;;14.00;99.90;;;;;;5070404;28;20433;-39
2022/05/30 09:13:43;;;;;;;5.30;4.13;;;14.20;99.90;;;;;;5075105;28;20522;-39
2022/05/30 09:16:28;;;;;;;7.00;4.20;;;14.40;99.90;;;;;;5058665;28;20430;-39
2022/05/30 09:18:55;;;;;;;5.20;4.40;;;14.60;99.90;;;;;;5053438;28;20424;-39
2022/05/30 09:21:22;;;;;;;4.93;3.60;;;14.70;99.90;;;;;;5045165;28;20431;-39
2022/05/30 09:23:48;;;;;;;4.23;3.40;;;14.80;99.70;;;;;;5061674;28;20504;-39
2022/05/30 09:26:17;;;;;;;3.50;3.20;;;14.80;99.40;;;;;;5072007;28;20874;-39
2022/05/30 09:28:46;;;;;;;5.47;2.80;;;14.80;99.30;;;;;;5071034;28;20788;-39
2022/05/30 09:31:20;;;;;;;4.37;3.03;;;14.80;98.60;;;;;;5060249;28;20443;-39
2022/05/30 09:33:49;;;;;;;5.80;2.50;;;14.80;98.90;;;;;;5051706;28;21298;-39
2022/05/30 09:36:25;;;;;;;2.43;2.10;;;14.70;98.00;;;;;;5071369;28;20538;-39
2022/05/30 09:39:02;;;;;;;2.60;2.37;;;14.60;97.40;;;;;;5065068;28;20430;-38
2022/05/30 09:41:40;;;;;;;6.53;3.00;;;14.40;97.10;;;;;;5071344;28;20484;-38
2022/05/30 09:44:20;;;;;;;5.23;2.97;;;14.30;98.50;;;;;;5071166;28;20415;-38
2022/05/30 09:47:02;;;;;;;4.03;2.50;;;14.20;98.50;;;;;;5055285;28;21008;-38
2022/05/30 09:49:36;;;;;;;2.53;2.33;;;13.80;98.40;;;;;;5053887;28;20418;-38
2022/05/30 09:52:27;;;;;;;4.17;2.80;;;13.70;98.30;;;;;;5070349;28;20433;-39
2022/05/30 09:54:54;;;;;;;4.67;2.90;;;13.80;99.00;;;;;;5068669;28;20480;-38
2022/05/30 09:57:27;;;;;;;4.77;3.80;;;13.70;99.90;;;;;;5069246;28;20439;-39
2022/05/30 09:59:57;;;;;;;5.47;3.83;;;13.70;99.90;;;;;;5066625;28;20435;-39
2022/05/30 10:02:31;;;;;;;4.23;3.10;;;13.80;99.90;;;;;;5048059;28;20464;-39
2022/05/30 10:05:20;;;;;;;5.37;3.97;;;13.70;99.20;;;;;;5061248;28;20423;-39
2022/05/30 10:07:55;;;;;;;6.27;3.50;;;13.50;99.90;;;;;;5067080;28;20884;-38
2022/05/30 10:10:36;;;;;;;6.63;3.80;;;13.70;99.90;;;;;;5060975;28;20415;-39
2022/05/30 10:13:04;;;;;;;14.13;5.50;;;13.80;99.20;;;;;;5070865;28;20544;-39
2022/05/30 10:15:37;;;;;;;4.10;3.70;;;13.60;98.10;;;;;;5061360;28;20535;-38
2022/05/30 10:18:17;;;;;;;8.07;3.93;;;13.70;99.10;;;;;;5045205;28;20424;-39
2022/05/30 10:21:05;;;;;;;4.27;3.83;;;13.60;98.40;;;;;;5062147;28;20427;-39
2022/05/30 10:30:16;;;;;;;6.43;3.60;;;14.00;99.70;;;;;;5066752;28;20439;-39
2022/05/30 10:32:55;;;;;;;4.07;2.90;;;14.20;99.10;;;;;;5050902;28;20430;-39
2022/05/30 10:35:52;;;;;;;5.53;2.80;;;14.20;97.90;;;;;;5055488;28;20466;-38
2022/05/30 10:38:18;;;;;;;5.50;2.83;;;14.20;99.40;;;;;;5068043;28;20419;-38
2022/05/30 10:41:07;;;;;;;3.03;2.53;;;14.30;97.30;;;;;;5069913;28;20411;-39
2022/05/30 10:43:48;;;;;;;2.80;2.53;;;14.30;96.60;;;;;;5070162;28;20236;-39
2022/05/30 10:46:31;;;;;;;5.10;3.27;;;14.50;97.50;;;;;;5057057;28;20439;-39
2022/05/30 10:49:20;;;;;;;4.23;3.20;;;14.60;98.20;;;;;;5048737;28;20503;-39
2022/05/30 10:52:15;;;;;;;4.70;3.27;;;14.60;96.40;;;;;;5063995;28;20426;-38
2022/05/30 10:54:53;;;;;;;3.97;3.17;;;14.70;96.00;;;;;;5057640;28;20519;-38
2022/05/30 10:57:26;;;;;;;5.17;3.60;;;14.70;96.90;;;;;;5069008;28;20514;-39
2022/05/30 11:00:07;;;;;;;3.37;3.07;;;14.90;97.20;;;;;;5067909;28;20419;-38
2022/05/30 11:02:51;;;;;;;3.10;2.47;;;15.20;98.10;;;;;;5048043;28;20459;-39
2022/05/30 11:05:32;;;;;;;3.97;2.50;;;15.50;97.20;;;;;;5054594;28;20445;-38
2022/05/30 11:08:23;;;;;;;4.17;2.70;;;15.70;97.00;;;;;;5068747;28;20446;-39
2022/05/30 11:10:55;;;;;;;2.50;2.20;;;15.70;96.20;;;;;;5063647;28;20423;-39
2022/05/30 11:13:35;;;;;;;3.90;2.40;;;15.70;96.00;;;;;;5069740;28;20804;-39
2022/05/30 11:16:06;;;;;;;2.40;2.03;;;15.50;95.20;;;;;;5062984;28;20517;-39
2022/05/30 11:18:54;;;;;;;2.27;1.90;;;15.60;95.10;;;;;;5047566;28;20435;-39
2022/05/30 11:21:28;;;;;;;5.43;2.60;;;15.40;94.60;;;;;;5054094;28;20423;-39
2022/05/30 11:23:54;;;;;;;4.47;1.93;;;15.30;95.20;;;;;;5067082;28;20460;-38
2022/05/30 11:26:20;;;;;;;2.37;1.60;;;15.30;96.50;;;;;;5069684;28;20468;-39
2022/05/30 11:29:24;;;;;;;1.97;1.77;;;15.20;94.40;;;;;;5068653;28;20185;-39
2022/05/30 11:32:22;;;;;;;4.83;2.50;;;15.20;96.00;;;;;;5054012;28;20203;-39
2022/05/30 11:35:12;;;;;;;3.87;2.43;;;15.10;95.30;;;;;;5048139;28;20423;-39
2022/05/30 11:37:56;;;;;;;1.83;1.60;;;14.90;95.10;;;;;;5068943;28;20441;-39
2022/05/30 11:40:45;;;;;;;2.60;1.80;;;14.90;95.50;;;;;;5056458;28;20431;-39
2022/05/30 11:43:17;;;;;;;2.90;1.63;;;14.80;93.90;;;;;;5058378;28;20471;-38
2022/05/30 11:45:42;;;;;;;2.77;1.63;;;14.60;94.30;;;;;;5064027;28;20436;-38
2022/05/30 11:48:29;;;;;;;2.80;1.60;;;14.60;95.70;;;;;;5054090;28;20478;-39
2022/05/30 11:51:08;;;;;;;3.70;1.70;;;14.70;96.20;;;;;;5058305;28;20239;-39
2022/05/30 11:53:58;;;;;;;2.97;1.87;;;14.70;94.50;;;;;;5067436;28;20411;-39
2022/05/30 11:56:36;;;;;;;1.93;1.67;;;14.70;96.90;;;;;;5062881;28;20427;-39
2022/05/30 11:59:31;;;;;;;4.30;1.50;;;14.80;97.30;;;;;;5069169;28;20415;-38
2022/05/30 12:01:59;;;;;;;3.10;1.60;;;15.00;97.10;;;;;;5049188;28;20463;-39
2022/05/30 12:04:58;;;;;;;4.60;2.00;;;15.10;96.20;;;;;;5054691;28;20420;-38
2022/05/30 12:07:45;;;;;;;3.00;1.50;;;15.20;95.40;;;;;;5060717;28;20415;-39
2022/05/30 12:10:24;;;;;;;1.90;1.43;;;15.30;96.00;;;;;;5065313;28;20448;-39
2022/05/30 12:13:25;;;;;;;2.47;1.57;;;15.30;95.20;;;;;;5068947;28;20422;-39
2022/05/30 12:16:45;;;;;;;3.63;1.90;;;15.30;94.50;;;;;;5065124;28;20428;-39
2022/05/30 12:24:56;;;;;;;2.93;1.70;;;15.40;95.90;;;;;;5059793;28;20432;-38
2022/05/30 12:27:30;;;;;;;3.17;1.93;;;15.20;95.30;;;;;;5064220;28;20447;-39
2022/05/30 12:30:00;;;;;;;4.63;2.03;;;15.30;96.70;;;;;;5068785;28;20427;-39
2022/05/30 12:32:36;;;;;;;2.57;1.90;;;15.50;96.90;;;;;;5050941;28;20448;-39
2022/05/30 12:35:22;;;;;;;2.23;2.03;;;15.80;95.90;;;;;;5058652;28;20910;-39
2022/05/30 12:37:58;;;;;;;6.53;2.23;;;15.90;95.30;;;;;;5068156;28;20742;-39
2022/05/30 12:40:24;;;;;;;3.90;2.10;;;15.90;94.20;;;;;;5060656;28;20831;-39
2022/05/30 12:43:32;;;;;;;4.03;2.70;;;15.90;93.40;;;;;;5068550;28;20546;-38
2022/05/30 12:45:58;;;;;;;2.17;1.70;;;15.70;95.10;;;;;;5064624;28;20185;-38
2022/05/30 12:48:45;;;;;;;7.03;2.40;;;15.50;94.50;;;;;;5050897;28;20480;-39
2022/05/30 12:51:16;;;;;;;2.23;1.90;;;15.50;95.50;;;;;;5051388;28;20177;-39
2022/05/30 12:53:57;;;;;;;3.83;2.13;;;15.40;95.00;;;;;;5045088;28;21100;-38
2022/05/30 12:56:38;;;;;;;3.40;2.10;;;15.30;94.10;;;;;;5053355;28;20468;-39
2022/05/30 12:59:03;;;;;;;4.07;2.27;;;15.30;92.90;;;;;;5055996;28;20503;-39
2022/05/30 13:01:53;;;;;;;4.50;2.53;;;15.40;93.30;;;;;;5053542;28;20506;-39
2022/05/30 13:04:29;;;;;;;5.43;2.27;;;15.50;93.30;;;;;;5050083;28;20178;-39
2022/05/30 13:06:58;;;;;;;3.30;2.23;;;15.60;93.40;;;;;;5063250;28;20418;-39
2022/05/30 13:09:42;;;;;;;3.70;2.30;;;15.60;94.40;;;;;;5070243;28;20552;-39
2022/05/30 13:12:10;;;;;;;5.10;2.90;;;15.70;94.00;;;;;;5063358;28;20482;-39
2022/05/30 13:14:36;;;;;;;5.40;2.50;;;15.80;93.90;;;;;;5071913;28;20415;-39
2022/05/30 13:17:23;;;;;;;4.90;2.40;;;15.70;93.60;;;;;;5060148;28;20432;-38
2022/05/30 13:19:54;;;;;;;3.27;2.50;;;15.60;93.90;;;;;;5051010;28;20177;-39
2022/05/30 13:22:31;;;;;;;5.50;3.10;;;15.50;94.20;;;;;;5067219;28;20968;-39
2022/05/30 13:24:58;;;;;;;5.73;3.17;;;15.60;94.50;;;;;;5066725;28;20412;-39
2022/05/30 13:27:26;;;;;;;4.90;3.80;;;15.70;93.90;;;;;;5056346;28;20498;-38
2022/05/30 13:29:52;;;;;;;2.80;2.60;;;15.60;92.80;;;;;;5062548;28;20462;-39